createdAt,value
2018-05-16T00:01:57.316Z,6.07
2018-05-16T00:04:26.553Z,6.40
2018-05-16T00:06:55.790Z,6.40
2018-05-16T00:09:25.823Z,6.30
2018-05-16T00:11:55.886Z,6.17
2018-05-16T00:14:25.272Z,6.80
2018-05-16T00:16:55.279Z,6.57
2018-05-16T00:19:24.549Z,6.07
2018-05-16T00:21:54.009Z,5.80
2018-05-16T00:24:23.265Z,6.40
2018-05-16T00:26:52.692Z,6.70
2018-05-16T00:29:21.919Z,5.93
2018-05-16T00:31:51.118Z,6.10
2018-05-16T00:34:20.493Z,5.97
2018-05-16T00:36:49.673Z,7.37
2018-05-16T00:39:18.961Z,6.97
2018-05-16T00:41:48.162Z,6.60
2018-05-16T00:44:18.165Z,6.90
2018-05-16T00:46:47.342Z,7.33
2018-05-16T00:49:17.338Z,6.87
2018-05-16T00:51:46.560Z,7.90
2018-05-16T00:54:16.545Z,7.10
2018-05-16T00:56:45.801Z,7.10
2018-05-16T00:59:15.142Z,6.87
2018-05-16T01:01:44.357Z,7.20
2018-05-16T01:04:13.652Z,7.90
2018-05-16T01:06:42.937Z,7.30
2018-05-16T01:09:12.195Z,8.37
2018-05-16T01:11:41.407Z,8.10
2018-05-16T01:14:10.658Z,7.73
2018-05-16T01:16:40.689Z,8.00
2018-05-16T01:19:10.712Z,8.00
2018-05-16T01:21:40.698Z,8.80
2018-05-16T01:24:09.977Z,8.53
2018-05-16T01:26:39.352Z,7.10
2018-05-16T01:29:08.604Z,8.73
2018-05-16T01:31:37.859Z,8.10
2018-05-16T01:34:07.219Z,9.10
2018-05-16T01:36:37.410Z,8.50
2018-05-16T01:39:06.675Z,8.97
2018-05-16T01:41:35.884Z,8.03
2018-05-16T01:44:06.034Z,8.80
2018-05-16T01:46:35.354Z,9.13
2018-05-16T01:49:20.173Z,8.47
2018-05-16T01:51:49.359Z,9.03
2018-05-16T01:54:18.609Z,8.93
2018-05-16T01:56:48.015Z,8.50
2018-05-16T01:59:17.227Z,9.10
2018-05-16T02:01:46.424Z,8.40
2018-05-16T02:04:15.646Z,8.63
2018-05-16T02:06:44.863Z,8.93
2018-05-16T02:09:14.078Z,8.40
2018-05-16T02:11:44.767Z,9.80
2018-05-16T02:14:14.892Z,8.27
2018-05-16T02:16:44.102Z,8.80
2018-05-16T02:19:13.634Z,9.77
2018-05-16T02:21:42.837Z,8.00
2018-05-16T02:24:12.060Z,7.90
2018-05-16T02:26:42.121Z,8.67
2018-05-16T02:29:11.361Z,8.80
2018-05-16T02:31:40.557Z,9.83
2018-05-16T02:34:10.560Z,10.00
2018-05-16T02:36:39.801Z,10.03
2018-05-16T02:39:09.021Z,9.27
2018-05-16T02:41:38.264Z,10.37
2018-05-16T02:44:07.706Z,9.90
2018-05-16T02:46:36.985Z,9.80
2018-05-16T02:49:07.169Z,10.17
2018-05-16T02:51:36.386Z,10.23
2018-05-16T02:54:06.468Z,10.90
2018-05-16T02:56:35.738Z,10.53
2018-05-16T02:59:04.946Z,11.83
2018-05-16T03:01:34.150Z,10.83
2018-05-16T03:04:03.448Z,10.20
2018-05-16T03:06:32.716Z,11.20
2018-05-16T03:09:01.933Z,10.67
2018-05-16T03:11:31.137Z,10.87
2018-05-16T03:14:00.464Z,11.37
2018-05-16T03:16:29.673Z,10.77
2018-05-16T03:18:59.822Z,11.60
2018-05-16T03:21:29.231Z,11.67
2018-05-16T03:23:59.196Z,10.77
2018-05-16T03:26:28.461Z,11.30
2018-05-16T03:28:57.673Z,11.33
2018-05-16T03:31:26.977Z,11.90
2018-05-16T03:33:57.127Z,11.50
2018-05-16T03:36:27.862Z,12.60
2018-05-16T03:38:57.313Z,11.93
2018-05-16T03:41:26.543Z,12.60
2018-05-16T03:43:55.746Z,12.50
2018-05-16T03:46:24.972Z,12.70
2018-05-16T04:02:17.584Z,13.73
2018-05-16T04:04:47.655Z,12.97
2018-05-16T04:07:16.958Z,13.47
2018-05-16T04:09:46.271Z,13.63
2018-05-16T04:12:15.737Z,12.87
2018-05-16T04:14:44.979Z,12.50
2018-05-16T04:17:14.252Z,13.27
2018-05-16T04:19:43.469Z,12.70
2018-05-16T04:22:12.781Z,14.07
2018-05-16T04:24:42.030Z,13.67
2018-05-16T04:27:13.344Z,13.43
2018-05-16T04:29:43.997Z,12.70
2018-05-16T04:32:14.114Z,13.67
2018-05-16T04:34:43.640Z,12.37
2018-05-16T04:37:12.922Z,13.40
2018-05-16T04:39:42.185Z,14.07
2018-05-16T04:42:11.433Z,14.40
2018-05-16T04:44:40.715Z,13.60
2018-05-16T04:47:10.821Z,13.63
2018-05-16T04:49:40.253Z,12.80
2018-05-16T04:52:09.467Z,15.00
2018-05-16T04:54:38.888Z,15.30
2018-05-16T04:57:08.771Z,13.23
2018-05-16T04:59:38.003Z,13.90
2018-05-16T05:02:07.288Z,14.13
2018-05-16T05:04:36.476Z,16.73
2018-05-16T05:07:06.463Z,14.80
2018-05-16T05:09:36.469Z,14.93
2018-05-16T05:12:06.454Z,14.23
2018-05-16T05:14:35.938Z,14.70
2018-05-16T05:17:05.147Z,13.77
2018-05-16T05:19:34.385Z,16.20
2018-05-16T05:22:04.352Z,15.50
2018-05-16T05:24:33.705Z,14.10
2018-05-16T05:27:03.683Z,14.80
2018-05-16T05:29:32.947Z,16.33
2018-05-16T05:32:02.932Z,16.43
2018-05-16T05:34:32.928Z,16.27
2018-05-16T05:37:03.845Z,15.73
2018-05-16T05:39:33.100Z,14.83
2018-05-16T05:42:03.189Z,16.57
2018-05-16T05:44:32.425Z,16.43
2018-05-16T05:47:01.659Z,16.73
2018-05-16T05:49:30.904Z,17.80
2018-05-16T05:52:00.922Z,17.00
2018-05-16T05:54:31.191Z,16.20
2018-05-16T05:57:00.421Z,16.83
2018-05-16T05:59:29.657Z,16.37
2018-05-16T06:01:58.874Z,16.87
2018-05-16T06:04:28.145Z,14.60
2018-05-16T06:06:57.601Z,14.50
2018-05-16T06:09:26.884Z,16.70
2018-05-16T06:11:56.138Z,14.37
2018-05-16T06:14:26.133Z,14.80
2018-05-16T06:16:55.351Z,14.50
2018-05-16T06:19:24.743Z,15.33
2018-05-16T06:21:53.934Z,15.70
2018-05-16T06:24:23.934Z,16.30
2018-05-16T06:26:53.150Z,15.00
2018-05-16T06:29:22.364Z,13.40
2018-05-16T06:31:52.407Z,14.47
2018-05-16T06:34:21.753Z,14.83
2018-05-16T06:36:51.097Z,14.33
2018-05-16T06:39:20.397Z,15.87
2018-05-16T06:41:49.514Z,15.37
2018-05-16T06:44:18.752Z,14.30
2018-05-16T06:46:47.941Z,16.03
2018-05-16T06:49:17.995Z,16.20
2018-05-16T06:51:47.318Z,13.37
2018-05-16T06:54:16.578Z,12.00
2018-05-16T06:56:45.750Z,11.80
2018-05-16T06:59:14.982Z,11.97
2018-05-16T07:01:44.296Z,11.07
2018-05-16T07:04:13.537Z,11.83
2018-05-16T07:06:42.816Z,13.87
2018-05-16T07:09:12.030Z,13.57
2018-05-16T07:11:41.333Z,14.30
2018-05-16T07:14:10.588Z,14.07
2018-05-16T07:16:39.797Z,13.17
2018-05-16T07:19:09.014Z,15.27
2018-05-16T07:21:38.257Z,15.77
2018-05-16T07:24:08.246Z,15.23
2018-05-16T07:26:38.969Z,14.73
2018-05-16T07:29:08.249Z,14.43
2018-05-16T07:31:37.461Z,14.33
2018-05-16T07:34:06.761Z,13.73
2018-05-16T07:36:36.013Z,13.13
2018-05-16T07:39:06.306Z,11.03
2018-05-16T07:41:35.576Z,12.30
2018-05-16T07:44:04.877Z,11.80
2018-05-16T07:46:34.110Z,11.50
2018-05-16T07:49:03.338Z,11.00
2018-05-16T07:51:32.568Z,9.77
2018-05-16T07:54:01.800Z,11.60
2018-05-16T07:56:31.096Z,11.87
2018-05-16T07:59:00.298Z,11.60
2018-05-16T08:01:29.490Z,11.37
2018-05-16T08:03:58.742Z,11.43
2018-05-16T08:06:27.961Z,10.77
2018-05-16T08:08:57.242Z,11.20
2018-05-16T08:11:26.405Z,11.53
2018-05-16T08:13:56.416Z,11.40
2018-05-16T08:16:26.456Z,9.80
2018-05-16T08:18:56.423Z,11.10
2018-05-16T08:21:25.930Z,10.70
2018-05-16T08:23:55.178Z,10.73
2018-05-16T08:26:24.370Z,11.50
2018-05-16T08:28:53.598Z,11.47
2018-05-16T08:31:22.879Z,12.20
2018-05-16T08:33:52.130Z,10.97
2018-05-16T08:36:21.364Z,11.20
2018-05-16T08:38:50.574Z,11.07
2018-05-16T08:41:19.777Z,10.83
2018-05-16T08:43:49.080Z,10.60
2018-05-16T08:46:18.294Z,10.80
2018-05-16T08:48:48.407Z,11.20
2018-05-16T08:51:17.625Z,11.40
2018-05-16T08:53:46.881Z,11.80
2018-05-16T08:56:16.130Z,11.77
2018-05-16T08:58:45.516Z,12.60
2018-05-16T09:01:14.756Z,11.00
2018-05-16T09:03:44.450Z,10.40
2018-05-16T09:06:14.450Z,10.50
2018-05-16T09:08:44.059Z,10.20
2018-05-16T09:11:13.269Z,10.83
2018-05-16T09:13:42.486Z,10.50
2018-05-16T09:16:11.761Z,10.33
2018-05-16T09:18:41.177Z,10.93
2018-05-16T09:21:10.432Z,8.00
2018-05-16T09:23:39.595Z,7.80
2018-05-16T09:26:08.818Z,8.77
2018-05-16T09:28:38.053Z,8.30
2018-05-16T09:31:08.037Z,9.10
2018-05-16T09:33:37.380Z,9.40
2018-05-16T09:36:07.434Z,10.73
2018-05-16T09:38:36.717Z,9.83
2018-05-16T09:41:05.957Z,10.07
2018-05-16T09:43:35.194Z,8.70
2018-05-16T09:46:04.458Z,9.60
2018-05-16T09:48:33.711Z,11.10
2018-05-16T09:51:03.821Z,10.47
2018-05-16T09:53:33.822Z,10.70
2018-05-16T09:56:03.051Z,10.33
2018-05-16T09:58:33.100Z,10.83
2018-05-16T10:01:02.331Z,10.63
2018-05-16T10:03:31.703Z,12.17
2018-05-16T10:06:00.958Z,10.40
2018-05-16T10:08:30.983Z,12.57
2018-05-16T10:11:00.238Z,12.60
2018-05-16T10:13:29.465Z,10.67
2018-05-16T10:15:58.699Z,10.43
2018-05-16T10:18:28.066Z,12.43
2018-05-16T10:20:57.437Z,11.83
2018-05-16T10:23:27.452Z,11.43
2018-05-16T10:25:56.934Z,13.90
2018-05-16T10:28:26.149Z,13.60
2018-05-16T10:30:55.360Z,12.27
2018-05-16T10:33:25.412Z,12.67
2018-05-16T10:35:54.613Z,12.20
2018-05-16T10:38:23.834Z,12.20
2018-05-16T10:40:53.221Z,11.73
2018-05-16T10:43:22.450Z,12.00
2018-05-16T10:45:51.638Z,12.50
2018-05-16T10:48:20.853Z,12.70
2018-05-16T10:50:50.078Z,11.93
2018-05-16T10:53:20.088Z,12.83
2018-05-16T10:55:50.887Z,13.30
2018-05-16T10:58:20.295Z,11.67
2018-05-16T11:00:49.489Z,11.37
2018-05-16T11:03:18.780Z,11.40
2018-05-16T11:05:47.965Z,12.53
2018-05-16T11:08:17.243Z,12.00
2018-05-16T11:10:46.503Z,11.30
2018-05-16T11:13:15.780Z,11.13
2018-05-16T11:15:45.008Z,10.17
2018-05-16T11:18:14.216Z,11.83
2018-05-16T11:20:44.246Z,11.00
2018-05-16T11:23:13.479Z,11.60
2018-05-16T11:25:42.832Z,11.57
2018-05-16T11:28:12.865Z,11.30
2018-05-16T11:30:42.997Z,12.67
2018-05-16T11:33:12.270Z,12.53
2018-05-16T11:35:41.500Z,13.57
2018-05-16T11:38:10.910Z,13.40
2018-05-16T11:40:40.164Z,13.20
2018-05-16T11:43:09.621Z,12.33
2018-05-16T11:45:38.849Z,12.97
2018-05-16T11:48:08.083Z,13.60
2018-05-16T11:50:37.340Z,13.97
2018-05-16T11:53:06.553Z,13.67
2018-05-16T11:55:35.803Z,14.70
2018-05-16T11:58:05.001Z,15.70
2018-05-16T12:00:34.239Z,14.70
2018-05-16T12:03:04.226Z,14.13
2018-05-16T12:05:33.497Z,16.00
2018-05-16T12:08:02.738Z,15.20
2018-05-16T12:10:31.969Z,14.83
2018-05-16T12:13:01.219Z,14.70
2018-05-16T12:15:30.682Z,15.63
2018-05-16T12:18:00.297Z,15.33
2018-05-16T12:20:29.659Z,15.60
2018-05-16T12:22:58.844Z,16.10
2018-05-16T12:25:28.129Z,16.90
2018-05-16T12:27:57.357Z,17.03
2018-05-16T12:30:26.840Z,16.03
2018-05-16T12:32:56.052Z,16.47
2018-05-16T12:35:26.029Z,16.67
2018-05-16T12:37:55.341Z,16.70
2018-05-16T12:40:24.540Z,16.43
2018-05-16T12:43:11.416Z,17.77
2018-05-16T12:45:40.634Z,18.20
2018-05-16T12:48:09.853Z,16.50
2018-05-16T12:50:39.014Z,17.93
2018-05-16T12:53:08.282Z,15.97
2018-05-16T12:55:37.604Z,15.27
2018-05-16T12:58:06.768Z,16.67
2018-05-16T13:00:36.743Z,16.87
2018-05-16T13:03:05.995Z,19.30
2018-05-16T13:05:36.031Z,17.10
2018-05-16T13:08:05.309Z,15.67
2018-05-16T13:10:35.284Z,16.60
2018-05-16T13:13:04.587Z,15.73
2018-05-16T13:15:34.845Z,15.73
2018-05-16T13:18:04.083Z,15.27
2018-05-16T13:20:33.474Z,14.40
2018-05-16T13:23:02.681Z,12.53
2018-05-16T13:25:31.961Z,11.57
2018-05-16T13:28:01.166Z,10.10
2018-05-16T13:30:30.672Z,11.43
2018-05-16T13:33:00.600Z,10.77
2018-05-16T13:35:29.984Z,10.70
2018-05-16T13:37:59.193Z,10.27
2018-05-16T13:40:28.529Z,10.20
2018-05-16T13:42:58.061Z,9.97
2018-05-16T13:45:27.312Z,11.07
2018-05-16T13:47:56.692Z,11.10
2018-05-16T13:50:26.794Z,11.57
2018-05-16T13:52:56.068Z,10.73
2018-05-16T13:55:25.813Z,9.83
2018-05-16T13:57:55.933Z,10.40
2018-05-16T14:00:25.160Z,10.43
2018-05-16T14:02:54.419Z,10.00
2018-05-16T14:05:23.668Z,10.57
2018-05-16T14:07:52.896Z,8.90
2018-05-16T14:10:22.451Z,9.60
2018-05-16T14:12:51.597Z,9.27
2018-05-16T14:15:22.026Z,8.50
2018-05-16T14:17:52.083Z,8.80
2018-05-16T14:20:21.645Z,7.50
2018-05-16T14:22:51.651Z,7.70
2018-05-16T14:25:20.854Z,8.50
2018-05-16T14:27:50.127Z,7.40
2018-05-16T14:30:19.388Z,7.83
2018-05-16T14:32:48.602Z,8.10
2018-05-16T14:35:17.955Z,7.70
2018-05-16T14:37:47.926Z,6.93
2018-05-16T14:40:17.196Z,7.80
2018-05-16T14:42:46.448Z,8.40
2018-05-16T14:45:15.665Z,8.53
2018-05-16T14:47:45.656Z,7.93
2018-05-16T14:50:14.882Z,7.83
2018-05-16T14:52:44.166Z,8.10
2018-05-16T14:55:14.959Z,8.70
2018-05-16T14:57:44.531Z,7.33
2018-05-16T15:00:13.774Z,7.23
2018-05-16T15:02:44.085Z,8.93
2018-05-16T15:05:13.599Z,8.00
2018-05-16T15:07:42.798Z,8.57
2018-05-16T15:10:12.041Z,8.53
2018-05-16T15:12:41.303Z,7.70
2018-05-16T15:15:11.328Z,8.17
2018-05-16T15:17:40.577Z,8.73
2018-05-16T15:20:09.869Z,9.43
2018-05-16T15:22:39.787Z,10.10
2018-05-16T15:25:09.247Z,10.10
2018-05-16T15:27:39.266Z,12.03
2018-05-16T15:30:10.402Z,10.63
2018-05-16T15:32:40.007Z,11.63
2018-05-16T15:35:09.242Z,11.33
2018-05-16T15:37:38.769Z,10.53
2018-05-16T15:40:07.969Z,9.93
2018-05-16T15:42:37.316Z,11.33
2018-05-16T15:45:06.670Z,10.87
2018-05-16T15:47:35.961Z,11.70
2018-05-16T15:50:05.192Z,11.30
2018-05-16T15:52:34.395Z,13.57
2018-05-16T15:55:03.878Z,12.77
2018-05-16T15:57:33.174Z,12.70
2018-05-16T16:00:02.599Z,13.17
2018-05-16T16:02:31.860Z,11.83
2018-05-16T16:05:01.318Z,13.90
2018-05-16T16:07:31.298Z,14.07
2018-05-16T16:10:00.541Z,13.57
2018-05-16T16:12:29.799Z,13.50
2018-05-16T16:14:59.137Z,13.47
2018-05-16T16:17:29.161Z,14.23
2018-05-16T16:19:59.268Z,15.73
2018-05-16T16:22:28.632Z,15.60
2018-05-16T16:24:57.922Z,15.43
2018-05-16T16:27:27.132Z,15.83
2018-05-16T16:29:56.578Z,15.63
2018-05-16T16:32:26.578Z,16.00
2018-05-16T16:34:55.898Z,18.70
2018-05-16T16:37:26.021Z,17.63
2018-05-16T16:39:56.264Z,18.30
2018-05-16T16:42:25.593Z,19.00
2018-05-16T16:44:54.863Z,19.63
2018-05-16T16:47:24.929Z,18.50
2018-05-16T16:49:54.187Z,20.80
2018-05-16T16:52:23.487Z,19.40
2018-05-16T16:54:52.690Z,16.00
2018-05-16T16:57:22.009Z,15.90
2018-05-16T16:59:51.219Z,19.57
2018-05-16T17:02:20.453Z,16.87
2018-05-16T17:04:50.475Z,17.03
2018-05-16T17:07:19.711Z,17.43
2018-05-16T17:09:48.931Z,17.70
2018-05-16T17:12:18.179Z,20.03
2018-05-16T17:14:47.534Z,19.07
2018-05-16T17:17:16.935Z,12.03
2018-05-16T17:19:46.148Z,14.17
2018-05-16T17:22:16.448Z,15.30
2018-05-16T17:24:45.662Z,15.30
2018-05-16T17:27:14.994Z,14.77
2018-05-16T17:29:45.085Z,16.70
2018-05-16T17:32:15.204Z,16.90
2018-05-16T17:34:44.726Z,18.23
2018-05-16T17:37:14.087Z,14.50
2018-05-16T17:39:43.943Z,12.53
2018-05-16T17:42:14.351Z,9.17
2018-05-16T17:44:44.155Z,9.10
2018-05-16T17:47:13.432Z,8.57
2018-05-16T17:49:42.730Z,8.63
2018-05-16T17:52:12.021Z,6.10
2018-05-16T17:54:41.274Z,7.50
2018-05-16T17:57:10.695Z,7.20
2018-05-16T17:59:40.024Z,7.60
2018-05-16T18:02:09.518Z,7.33
2018-05-16T18:04:38.724Z,8.40
2018-05-16T18:07:08.114Z,7.77
2018-05-16T18:09:37.596Z,7.80
2018-05-16T18:12:08.188Z,9.10
2018-05-16T18:15:15.793Z,10.27
2018-05-16T18:17:45.149Z,8.87
2018-05-16T18:20:14.550Z,8.57
2018-05-16T18:22:43.849Z,9.60
2018-05-16T18:25:13.768Z,8.47
2018-05-16T18:27:43.050Z,9.20
2018-05-16T18:30:12.605Z,10.70
2018-05-16T18:32:41.906Z,9.70
2018-05-16T18:35:11.194Z,9.13
2018-05-16T18:37:40.419Z,11.83
2018-05-16T18:40:10.410Z,12.00
2018-05-16T18:42:40.242Z,10.77
2018-05-16T18:45:09.383Z,13.10
2018-05-16T18:47:38.701Z,11.90
2018-05-16T18:50:07.961Z,10.13
2018-05-16T18:52:37.977Z,9.20
2018-05-16T18:55:07.241Z,9.27
2018-05-16T18:57:36.758Z,10.20
2018-05-16T19:00:06.182Z,9.57
2018-05-16T19:02:35.437Z,10.50
2018-05-16T19:05:04.662Z,10.90
2018-05-16T19:07:34.618Z,10.70
2018-05-16T19:10:03.850Z,10.43
2018-05-16T19:12:33.086Z,12.03
2018-05-16T19:15:02.512Z,12.27
2018-05-16T19:17:31.828Z,11.10
2018-05-16T19:20:01.059Z,11.17
2018-05-16T19:22:30.296Z,11.67
2018-05-16T19:24:59.736Z,12.20
2018-05-16T19:27:28.978Z,10.90
2018-05-16T19:29:59.729Z,11.30
2018-05-16T19:32:28.972Z,12.93
2018-05-16T19:34:58.822Z,11.17
2018-05-16T19:37:28.107Z,12.90
2018-05-16T19:39:59.277Z,14.53
2018-05-16T19:42:28.565Z,13.30
2018-05-16T19:44:58.945Z,12.83
2018-05-16T19:47:28.232Z,13.67
2018-05-16T19:49:57.497Z,12.50
2018-05-16T19:52:26.717Z,12.83
2018-05-16T19:54:56.215Z,12.87
2018-05-16T19:57:25.484Z,12.47
2018-05-16T19:59:55.766Z,13.03
2018-05-16T20:02:25.000Z,12.70
2018-05-16T20:04:55.047Z,13.20
2018-05-16T20:07:25.058Z,15.83
2018-05-16T20:09:54.387Z,14.53
2018-05-16T20:12:24.474Z,15.23
2018-05-16T20:14:53.780Z,14.50
2018-05-16T20:17:22.972Z,12.17
2018-05-16T20:19:53.152Z,13.43
2018-05-16T20:22:22.514Z,14.30
2018-05-16T20:24:51.960Z,13.93
2018-05-16T20:27:21.210Z,12.67
2018-05-16T20:29:50.662Z,13.20
2018-05-16T20:32:19.958Z,13.00
2018-05-16T20:34:50.294Z,13.97
2018-05-16T20:37:20.248Z,13.07
2018-05-16T20:39:49.530Z,14.40
2018-05-16T20:42:21.065Z,11.53
2018-05-16T20:44:50.263Z,13.20
2018-05-16T20:47:19.636Z,12.73
2018-05-16T20:49:50.058Z,15.30
2018-05-16T20:52:19.441Z,13.80
2018-05-16T20:54:48.700Z,13.47
2018-05-16T20:57:18.685Z,14.47
2018-05-16T20:59:49.124Z,15.10
2018-05-16T21:02:18.434Z,15.40
2018-05-16T21:04:48.423Z,15.50
2018-05-16T21:07:17.930Z,15.97
2018-05-16T21:09:47.166Z,18.37
2018-05-16T21:12:16.778Z,15.97
2018-05-16T21:14:46.139Z,15.93
2018-05-16T21:17:15.404Z,15.33
2018-05-16T21:19:44.671Z,18.27
2018-05-16T21:22:14.249Z,16.27
2018-05-16T21:24:44.264Z,16.10
2018-05-16T21:27:13.494Z,15.80
2018-05-16T21:29:42.732Z,15.83
2018-05-16T21:32:11.965Z,15.27
2018-05-16T21:34:42.102Z,15.90
2018-05-16T21:37:11.359Z,13.00
2018-05-16T21:39:40.958Z,15.63
2018-05-16T21:42:10.219Z,14.03
2018-05-16T21:44:39.476Z,15.30
2018-05-16T21:47:09.062Z,13.70
2018-05-16T21:49:38.304Z,12.40
2018-05-16T21:52:08.418Z,12.80
2018-05-16T21:54:38.554Z,12.20
2018-05-16T21:57:07.783Z,12.33
2018-05-16T21:59:37.141Z,12.80
2018-05-16T22:02:06.419Z,10.40
2018-05-16T22:04:35.661Z,11.40
2018-05-16T22:07:05.329Z,12.03
2018-05-16T22:09:35.673Z,12.43
2018-05-16T22:12:05.018Z,10.37
2018-05-16T22:14:34.257Z,11.83
2018-05-16T22:17:04.299Z,11.80
2018-05-16T22:19:33.597Z,10.77
2018-05-16T22:22:03.569Z,11.70
2018-05-16T22:24:33.017Z,10.97
2018-05-16T22:27:02.274Z,11.53
2018-05-16T22:29:32.241Z,10.20
2018-05-16T22:32:06.955Z,11.07
2018-05-16T22:34:41.700Z,11.27
2018-05-16T22:37:16.807Z,11.13
2018-05-16T22:39:51.670Z,11.10
2018-05-16T22:42:26.358Z,10.30
2018-05-16T22:44:57.398Z,11.60
2018-05-16T22:47:26.689Z,11.17
2018-05-16T22:49:56.680Z,10.17
2018-05-16T22:52:26.093Z,10.93
2018-05-16T22:54:55.308Z,10.53
2018-05-16T22:57:25.342Z,10.47
2018-05-16T22:59:54.556Z,9.70
2018-05-16T23:02:23.910Z,10.73
2018-05-16T23:04:53.908Z,11.17
2018-05-16T23:07:23.832Z,9.60
2018-05-16T23:09:53.165Z,10.87
2018-05-16T23:12:22.373Z,7.37
2018-05-16T23:14:51.608Z,8.27
2018-05-16T23:17:20.829Z,8.10
2018-05-16T23:19:50.038Z,9.13
2018-05-16T23:22:19.267Z,7.10
2018-05-16T23:24:49.504Z,6.33
2018-05-16T23:27:18.896Z,7.33
2018-05-16T23:29:48.180Z,5.73
2018-05-16T23:32:17.378Z,8.00
2018-05-16T23:34:46.578Z,7.03
2018-05-16T23:37:15.799Z,6.23
2018-05-16T23:39:45.013Z,5.97
2018-05-16T23:42:14.217Z,5.43
2018-05-16T23:44:43.462Z,5.13
2018-05-16T23:47:12.682Z,5.00
2018-05-16T23:49:41.905Z,5.80
2018-05-16T23:52:11.163Z,6.00
2018-05-16T23:54:40.427Z,5.23
2018-05-16T23:57:10.436Z,5.10
2018-05-16T23:59:40.442Z,3.90
